sensor_id;sensor_type;location;lat;lon;timestamp;P1;durP1;ratioP1;P2;durP2;ratioP2
7737;SDS011;29398;45.328;5.558;2024-01-25T00:00:36;9.55;;;6.78;;
7737;SDS011;29398;45.328;5.558;2024-01-25T00:01:37;12.02;;;7.30;;
7737;SDS011;29398;45.328;5.558;2024-01-25T00:02:39;11.50;;;7.00;;
7737;SDS011;29398;45.328;5.558;2024-01-25T00:03:40;13.40;;;7.20;;
7737;SDS011;29398;45.328;5.558;2024-01-25T00:04:42;13.27;;;7.78;;
7737;SDS011;29398;45.328;5.558;2024-01-25T00:05:43;11.50;;;7.82;;
7737;SDS011;29398;45.328;5.558;2024-01-25T00:06:45;11.68;;;7.18;;
7737;SDS011;29398;45.328;5.558;2024-01-25T00:07:46;14.38;;;8.18;;
7737;SDS011;29398;45.328;5.558;2024-01-25T00:08:48;15.70;;;9.13;;
7737;SDS011;29398;45.328;5.558;2024-01-25T00:09:51;14.68;;;8.65;;
7737;SDS011;29398;45.328;5.558;2024-01-25T00:10:52;13.77;;;7.90;;
7737;SDS011;29398;45.328;5.558;2024-01-25T00:11:54;14.93;;;8.55;;
7737;SDS011;29398;45.328;5.558;2024-01-25T00:12:56;13.50;;;7.75;;
7737;SDS011;29398;45.328;5.558;2024-01-25T00:13:58;13.63;;;8.13;;
7737;SDS011;29398;45.328;5.558;2024-01-25T00:14:59;14.95;;;8.38;;
7737;SDS011;29398;45.328;5.558;2024-01-25T00:16:00;13.43;;;8.05;;
7737;SDS011;29398;45.328;5.558;2024-01-25T00:17:02;13.90;;;8.18;;
7737;SDS011;29398;45.328;5.558;2024-01-25T00:18:04;12.48;;;8.43;;
7737;SDS011;29398;45.328;5.558;2024-01-25T00:19:06;12.77;;;8.07;;
7737;SDS011;29398;45.328;5.558;2024-01-25T00:20:08;10.57;;;7.10;;
7737;SDS011;29398;45.328;5.558;2024-01-25T00:21:11;11.45;;;7.82;;
7737;SDS011;29398;45.328;5.558;2024-01-25T00:22:12;16.73;;;8.38;;
7737;SDS011;29398;45.328;5.558;2024-01-25T00:23:14;12.40;;;7.80;;
7737;SDS011;29398;45.328;5.558;2024-01-25T00:24:33;12.20;;;7.90;;
7737;SDS011;29398;45.328;5.558;2024-01-25T00:25:38;14.10;;;7.82;;
7737;SDS011;29398;45.328;5.558;2024-01-25T00:26:39;12.57;;;7.50;;
7737;SDS011;29398;45.328;5.558;2024-01-25T00:27:41;13.93;;;8.23;;
7737;SDS011;29398;45.328;5.558;2024-01-25T00:28:44;12.63;;;7.68;;
7737;SDS011;29398;45.328;5.558;2024-01-25T00:29:46;11.95;;;7.03;;
7737;SDS011;29398;45.328;5.558;2024-01-25T00:30:48;13.63;;;7.45;;
7737;SDS011;29398;45.328;5.558;2024-01-25T00:32:07;11.85;;;7.80;;
7737;SDS011;29398;45.328;5.558;2024-01-25T00:33:10;11.45;;;7.43;;
7737;SDS011;29398;45.328;5.558;2024-01-25T00:34:11;10.48;;;7.13;;
7737;SDS011;29398;45.328;5.558;2024-01-25T00:35:14;9.40;;;6.75;;
7737;SDS011;29398;45.328;5.558;2024-01-25T00:36:16;10.27;;;6.50;;
7737;SDS011;29398;45.328;5.558;2024-01-25T00:37:18;10.80;;;6.28;;
7737;SDS011;29398;45.328;5.558;2024-01-25T00:38:20;10.38;;;7.13;;
7737;SDS011;29398;45.328;5.558;2024-01-25T00:39:21;10.63;;;6.13;;
7737;SDS011;29398;45.328;5.558;2024-01-25T00:40:24;8.95;;;6.70;;
7737;SDS011;29398;45.328;5.558;2024-01-25T00:41:27;8.25;;;6.20;;
7737;SDS011;29398;45.328;5.558;2024-01-25T00:42:32;9.00;;;6.68;;
7737;SDS011;29398;45.328;5.558;2024-01-25T00:43:38;8.15;;;5.57;;
7737;SDS011;29398;45.328;5.558;2024-01-25T00:44:40;9.07;;;6.35;;
7737;SDS011;29398;45.328;5.558;2024-01-25T00:45:42;7.68;;;6.07;;
7737;SDS011;29398;45.328;5.558;2024-01-25T00:46:44;8.57;;;6.05;;
7737;SDS011;29398;45.328;5.558;2024-01-25T00:47:47;8.68;;;6.15;;
7737;SDS011;29398;45.328;5.558;2024-01-25T00:48:49;7.68;;;5.95;;
7737;SDS011;29398;45.328;5.558;2024-01-25T00:49:51;8.65;;;5.55;;
7737;SDS011;29398;45.328;5.558;2024-01-25T00:50:52;7.30;;;5.63;;
7737;SDS011;29398;45.328;5.558;2024-01-25T00:51:57;8.75;;;6.10;;
7737;SDS011;29398;45.328;5.558;2024-01-25T00:53:00;9.77;;;6.32;;
7737;SDS011;29398;45.328;5.558;2024-01-25T00:54:02;8.55;;;6.40;;
7737;SDS011;29398;45.328;5.558;2024-01-25T00:55:04;8.25;;;6.15;;
7737;SDS011;29398;45.328;5.558;2024-01-25T00:56:07;9.48;;;6.75;;
7737;SDS011;29398;45.328;5.558;2024-01-25T00:57:12;9.23;;;6.93;;
7737;SDS011;29398;45.328;5.558;2024-01-25T00:58:13;8.60;;;6.70;;
7737;SDS011;29398;45.328;5.558;2024-01-25T00:59:16;9.23;;;6.03;;
7737;SDS011;29398;45.328;5.558;2024-01-25T01:00:17;8.65;;;6.60;;
7737;SDS011;29398;45.328;5.558;2024-01-25T01:01:20;8.15;;;6.25;;
7737;SDS011;29398;45.328;5.558;2024-01-25T01:02:24;9.00;;;6.22;;
7737;SDS011;29398;45.328;5.558;2024-01-25T01:03:30;7.75;;;6.30;;
7737;SDS011;29398;45.328;5.558;2024-01-25T01:05:34;8.20;;;6.30;;
7737;SDS011;29398;45.328;5.558;2024-01-25T01:06:36;9.50;;;6.80;;
7737;SDS011;29398;45.328;5.558;2024-01-25T01:07:38;8.20;;;5.85;;
7737;SDS011;29398;45.328;5.558;2024-01-25T01:08:41;9.52;;;6.63;;
7737;SDS011;29398;45.328;5.558;2024-01-25T01:09:42;9.48;;;6.18;;
7737;SDS011;29398;45.328;5.558;2024-01-25T01:10:44;8.32;;;6.78;;
7737;SDS011;29398;45.328;5.558;2024-01-25T01:11:46;9.00;;;6.50;;
7737;SDS011;29398;45.328;5.558;2024-01-25T01:12:49;8.13;;;6.00;;
7737;SDS011;29398;45.328;5.558;2024-01-25T01:13:52;9.25;;;6.78;;
7737;SDS011;29398;45.328;5.558;2024-01-25T01:14:54;9.23;;;6.45;;
7737;SDS011;29398;45.328;5.558;2024-01-25T01:15:55;8.73;;;6.43;;
7737;SDS011;29398;45.328;5.558;2024-01-25T01:16:57;9.02;;;6.18;;
7737;SDS011;29398;45.328;5.558;2024-01-25T01:17:58;8.20;;;6.28;;
7737;SDS011;29398;45.328;5.558;2024-01-25T01:19:00;9.10;;;5.85;;
7737;SDS011;29398;45.328;5.558;2024-01-25T01:20:06;7.18;;;5.72;;
7737;SDS011;29398;45.328;5.558;2024-01-25T01:21:08;11.43;;;6.20;;
7737;SDS011;29398;45.328;5.558;2024-01-25T01:22:09;9.48;;;6.55;;
7737;SDS011;29398;45.328;5.558;2024-01-25T01:23:12;8.73;;;6.60;;
7737;SDS011;29398;45.328;5.558;2024-01-25T01:24:13;9.85;;;6.05;;
7737;SDS011;29398;45.328;5.558;2024-01-25T01:25:14;9.98;;;6.50;;
7737;SDS011;29398;45.328;5.558;2024-01-25T01:26:16;8.82;;;6.53;;
7737;SDS011;29398;45.328;5.558;2024-01-25T01:27:17;8.98;;;5.97;;
7737;SDS011;29398;45.328;5.558;2024-01-25T01:28:22;7.05;;;5.97;;
7737;SDS011;29398;45.328;5.558;2024-01-25T01:29:23;9.27;;;6.25;;
7737;SDS011;29398;45.328;5.558;2024-01-25T01:30:25;7.70;;;6.35;;
7737;SDS011;29398;45.328;5.558;2024-01-25T01:31:26;9.00;;;6.25;;
7737;SDS011;29398;45.328;5.558;2024-01-25T01:32:28;9.00;;;6.15;;
7737;SDS011;29398;45.328;5.558;2024-01-25T01:33:29;8.75;;;5.93;;
7737;SDS011;29398;45.328;5.558;2024-01-25T01:34:31;6.70;;;5.75;;
7737;SDS011;29398;45.328;5.558;2024-01-25T01:35:32;8.15;;;6.30;;
7737;SDS011;29398;45.328;5.558;2024-01-25T01:36:33;8.80;;;6.65;;
7737;SDS011;29398;45.328;5.558;2024-01-25T01:37:35;11.05;;;6.50;;
7737;SDS011;29398;45.328;5.558;2024-01-25T01:38:36;9.15;;;6.60;;
7737;SDS011;29398;45.328;5.558;2024-01-25T01:39:39;8.70;;;6.80;;
7737;SDS011;29398;45.328;5.558;2024-01-25T01:40:40;8.50;;;6.30;;
7737;SDS011;29398;45.328;5.558;2024-01-25T01:42:00;8.95;;;6.03;;
7737;SDS011;29398;45.328;5.558;2024-01-25T01:43:02;7.35;;;5.82;;
7737;SDS011;29398;45.328;5.558;2024-01-25T01:44:05;9.93;;;6.10;;
7737;SDS011;29398;45.328;5.558;2024-01-25T01:45:07;10.85;;;6.63;;
7737;SDS011;29398;45.328;5.558;2024-01-25T01:46:16;10.23;;;6.35;;
7737;SDS011;29398;45.328;5.558;2024-01-25T01:47:23;7.97;;;5.85;;
7737;SDS011;29398;45.328;5.558;2024-01-25T01:48:24;9.70;;;6.05;;
7737;SDS011;29398;45.328;5.558;2024-01-25T01:49:26;7.47;;;6.13;;
7737;SDS011;29398;45.328;5.558;2024-01-25T01:50:27;9.30;;;5.90;;
7737;SDS011;29398;45.328;5.558;2024-01-25T01:51:30;7.40;;;5.93;;
7737;SDS011;29398;45.328;5.558;2024-01-25T01:52:32;6.28;;;5.60;;
7737;SDS011;29398;45.328;5.558;2024-01-25T01:53:34;7.75;;;5.75;;
7737;SDS011;29398;45.328;5.558;2024-01-25T01:54:36;8.57;;;6.38;;
7737;SDS011;29398;45.328;5.558;2024-01-25T01:55:39;6.78;;;5.90;;
7737;SDS011;29398;45.328;5.558;2024-01-25T01:56:41;10.68;;;6.00;;
7737;SDS011;29398;45.328;5.558;2024-01-25T01:57:45;8.75;;;5.15;;
7737;SDS011;29398;45.328;5.558;2024-01-25T01:58:47;6.63;;;5.90;;
7737;SDS011;29398;45.328;5.558;2024-01-25T01:59:50;8.80;;;5.72;;
7737;SDS011;29398;45.328;5.558;2024-01-25T02:00:52;9.15;;;6.72;;
7737;SDS011;29398;45.328;5.558;2024-01-25T02:01:54;7.45;;;5.90;;
7737;SDS011;29398;45.328;5.558;2024-01-25T02:02:55;7.32;;;5.70;;
7737;SDS011;29398;45.328;5.558;2024-01-25T02:03:58;7.65;;;6.40;;
7737;SDS011;29398;45.328;5.558;2024-01-25T02:04:59;6.00;;;5.40;;
7737;SDS011;29398;45.328;5.558;2024-01-25T02:06:01;7.95;;;5.72;;
7737;SDS011;29398;45.328;5.558;2024-01-25T02:07:03;7.47;;;5.90;;
7737;SDS011;29398;45.328;5.558;2024-01-25T02:08:05;7.90;;;5.70;;
7737;SDS011;29398;45.328;5.558;2024-01-25T02:09:07;9.88;;;6.18;;
7737;SDS011;29398;45.328;5.558;2024-01-25T02:10:10;7.60;;;6.00;;
7737;SDS011;29398;45.328;5.558;2024-01-25T02:11:12;7.85;;;6.25;;
7737;SDS011;29398;45.328;5.558;2024-01-25T02:12:15;8.05;;;6.05;;
7737;SDS011;29398;45.328;5.558;2024-01-25T02:13:17;9.15;;;6.20;;
7737;SDS011;29398;45.328;5.558;2024-01-25T02:14:18;7.57;;;5.93;;
7737;SDS011;29398;45.328;5.558;2024-01-25T02:15:21;8.02;;;6.63;;
7737;SDS011;29398;45.328;5.558;2024-01-25T02:16:23;8.35;;;5.65;;
7737;SDS011;29398;45.328;5.558;2024-01-25T02:17:24;10.85;;;5.85;;
7737;SDS011;29398;45.328;5.558;2024-01-25T02:18:25;10.00;;;6.55;;
7737;SDS011;29398;45.328;5.558;2024-01-25T02:19:28;8.68;;;6.50;;
7737;SDS011;29398;45.328;5.558;2024-01-25T02:20:29;10.57;;;6.55;;
7737;SDS011;29398;45.328;5.558;2024-01-25T02:21:31;9.60;;;6.53;;
7737;SDS011;29398;45.328;5.558;2024-01-25T02:22:33;11.77;;;6.63;;
7737;SDS011;29398;45.328;5.558;2024-01-25T02:23:35;8.35;;;6.13;;
7737;SDS011;29398;45.328;5.558;2024-01-25T02:24:36;8.75;;;6.22;;
7737;SDS011;29398;45.328;5.558;2024-01-25T02:25:38;9.38;;;5.93;;
7737;SDS011;29398;45.328;5.558;2024-01-25T02:26:40;8.07;;;6.20;;
7737;SDS011;29398;45.328;5.558;2024-01-25T02:27:42;12.10;;;5.88;;
7737;SDS011;29398;45.328;5.558;2024-01-25T02:28:43;9.50;;;6.35;;
7737;SDS011;29398;45.328;5.558;2024-01-25T02:29:45;7.82;;;6.40;;
7737;SDS011;29398;45.328;5.558;2024-01-25T02:30:46;7.30;;;5.82;;
7737;SDS011;29398;45.328;5.558;2024-01-25T02:31:48;7.03;;;5.72;;
7737;SDS011;29398;45.328;5.558;2024-01-25T02:32:49;6.95;;;5.70;;
7737;SDS011;29398;45.328;5.558;2024-01-25T02:33:51;11.38;;;6.28;;
7737;SDS011;29398;45.328;5.558;2024-01-25T02:34:52;9.82;;;6.60;;
7737;SDS011;29398;45.328;5.558;2024-01-25T02:35:53;9.73;;;6.15;;
7737;SDS011;29398;45.328;5.558;2024-01-25T02:36:55;6.60;;;5.97;;
7737;SDS011;29398;45.328;5.558;2024-01-25T02:37:58;7.55;;;6.13;;
7737;SDS011;29398;45.328;5.558;2024-01-25T02:39:00;7.20;;;6.03;;
7737;SDS011;29398;45.328;5.558;2024-01-25T02:40:01;8.13;;;5.63;;
7737;SDS011;29398;45.328;5.558;2024-01-25T02:41:04;9.65;;;6.25;;
7737;SDS011;29398;45.328;5.558;2024-01-25T02:42:05;7.47;;;6.18;;
7737;SDS011;29398;45.328;5.558;2024-01-25T02:43:07;8.23;;;6.22;;
7737;SDS011;29398;45.328;5.558;2024-01-25T02:44:08;7.80;;;5.78;;
7737;SDS011;29398;45.328;5.558;2024-01-25T02:45:10;8.13;;;6.22;;
7737;SDS011;29398;45.328;5.558;2024-01-25T02:46:12;10.00;;;6.25;;
7737;SDS011;29398;45.328;5.558;2024-01-25T02:47:13;9.35;;;5.90;;
7737;SDS011;29398;45.328;5.558;2024-01-25T02:48:16;7.82;;;5.22;;
7737;SDS011;29398;45.328;5.558;2024-01-25T02:49:17;7.63;;;5.90;;
7737;SDS011;29398;45.328;5.558;2024-01-25T02:50:18;7.18;;;5.78;;
7737;SDS011;29398;45.328;5.558;2024-01-25T02:51:39;8.30;;;5.90;;
7737;SDS011;29398;45.328;5.558;2024-01-25T02:52:40;8.88;;;6.15;;
7737;SDS011;29398;45.328;5.558;2024-01-25T02:53:43;9.15;;;6.20;;
7737;SDS011;29398;45.328;5.558;2024-01-25T02:54:44;7.78;;;6.20;;
7737;SDS011;29398;45.328;5.558;2024-01-25T02:55:46;9.10;;;6.03;;
7737;SDS011;29398;45.328;5.558;2024-01-25T02:56:47;8.63;;;6.30;;
7737;SDS011;29398;45.328;5.558;2024-01-25T02:57:49;8.00;;;6.15;;
7737;SDS011;29398;45.328;5.558;2024-01-25T02:58:51;8.20;;;6.38;;
7737;SDS011;29398;45.328;5.558;2024-01-25T02:59:53;7.93;;;5.88;;
7737;SDS011;29398;45.328;5.558;2024-01-25T03:00:54;11.13;;;6.75;;
7737;SDS011;29398;45.328;5.558;2024-01-25T03:01:56;8.43;;;6.40;;
7737;SDS011;29398;45.328;5.558;2024-01-25T03:02:57;8.73;;;6.05;;
7737;SDS011;29398;45.328;5.558;2024-01-25T03:03:58;9.50;;;6.32;;
7737;SDS011;29398;45.328;5.558;2024-01-25T03:05:01;10.18;;;6.75;;
7737;SDS011;29398;45.328;5.558;2024-01-25T03:06:02;8.50;;;6.28;;
7737;SDS011;29398;45.328;5.558;2024-01-25T03:07:05;7.13;;;5.38;;
7737;SDS011;29398;45.328;5.558;2024-01-25T03:08:06;13.25;;;5.72;;
7737;SDS011;29398;45.328;5.558;2024-01-25T03:09:10;8.50;;;6.00;;
7737;SDS011;29398;45.328;5.558;2024-01-25T03:10:11;7.13;;;5.88;;
7737;SDS011;29398;45.328;5.558;2024-01-25T03:11:12;6.38;;;5.43;;
7737;SDS011;29398;45.328;5.558;2024-01-25T03:12:14;6.63;;;5.13;;
7737;SDS011;29398;45.328;5.558;2024-01-25T03:13:15;10.95;;;5.85;;
7737;SDS011;29398;45.328;5.558;2024-01-25T03:14:16;7.28;;;5.60;;
7737;SDS011;29398;45.328;5.558;2024-01-25T03:15:18;9.75;;;5.95;;
7737;SDS011;29398;45.328;5.558;2024-01-25T03:16:19;8.60;;;5.70;;
7737;SDS011;29398;45.328;5.558;2024-01-25T03:18:41;8.23;;;6.43;;
7737;SDS011;29398;45.328;5.558;2024-01-25T03:19:43;8.40;;;5.93;;
7737;SDS011;29398;45.328;5.558;2024-01-25T03:20:44;8.25;;;5.68;;
7737;SDS011;29398;45.328;5.558;2024-01-25T03:21:46;8.30;;;5.78;;
7737;SDS011;29398;45.328;5.558;2024-01-25T03:22:47;8.57;;;6.13;;
7737;SDS011;29398;45.328;5.558;2024-01-25T03:23:49;9.27;;;5.55;;
7737;SDS011;29398;45.328;5.558;2024-01-25T03:24:51;7.32;;;6.25;;
7737;SDS011;29398;45.328;5.558;2024-01-25T03:25:53;7.18;;;6.30;;
7737;SDS011;29398;45.328;5.558;2024-01-25T03:26:55;8.55;;;6.18;;
7737;SDS011;29398;45.328;5.558;2024-01-25T03:27:56;8.77;;;6.15;;
7737;SDS011;29398;45.328;5.558;2024-01-25T03:28:57;9.20;;;5.88;;
7737;SDS011;29398;45.328;5.558;2024-01-25T03:29:59;7.30;;;6.35;;
7737;SDS011;29398;45.328;5.558;2024-01-25T03:31:00;7.88;;;6.05;;
7737;SDS011;29398;45.328;5.558;2024-01-25T03:32:02;8.38;;;5.72;;
7737;SDS011;29398;45.328;5.558;2024-01-25T03:33:04;10.15;;;6.25;;
7737;SDS011;29398;45.328;5.558;2024-01-25T03:34:06;11.15;;;7.03;;
7737;SDS011;29398;45.328;5.558;2024-01-25T03:35:07;9.45;;;6.57;;
7737;SDS011;29398;45.328;5.558;2024-01-25T03:36:13;7.40;;;6.00;;
7737;SDS011;29398;45.328;5.558;2024-01-25T03:37:33;10.68;;;6.68;;
7737;SDS011;29398;45.328;5.558;2024-01-25T03:38:35;9.15;;;6.75;;
7737;SDS011;29398;45.328;5.558;2024-01-25T03:39:36;9.40;;;6.90;;
7737;SDS011;29398;45.328;5.558;2024-01-25T03:40:39;9.77;;;7.00;;
7737;SDS011;29398;45.328;5.558;2024-01-25T03:41:40;8.27;;;6.60;;
7737;SDS011;29398;45.328;5.558;2024-01-25T03:42:41;9.45;;;6.85;;
7737;SDS011;29398;45.328;5.558;2024-01-25T03:43:43;11.32;;;6.93;;
7737;SDS011;29398;45.328;5.558;2024-01-25T03:44:45;11.23;;;7.43;;
7737;SDS011;29398;45.328;5.558;2024-01-25T03:45:47;9.77;;;7.20;;
7737;SDS011;29398;45.328;5.558;2024-01-25T03:46:49;12.57;;;7.35;;
7737;SDS011;29398;45.328;5.558;2024-01-25T03:47:50;10.13;;;7.85;;
7737;SDS011;29398;45.328;5.558;2024-01-25T03:48:51;10.13;;;6.80;;
7737;SDS011;29398;45.328;5.558;2024-01-25T03:49:54;12.00;;;7.43;;
7737;SDS011;29398;45.328;5.558;2024-01-25T03:50:55;9.57;;;6.90;;
7737;SDS011;29398;45.328;5.558;2024-01-25T03:51:58;10.30;;;7.32;;
7737;SDS011;29398;45.328;5.558;2024-01-25T03:52:59;10.10;;;7.68;;
7737;SDS011;29398;45.328;5.558;2024-01-25T03:54:01;8.30;;;6.70;;
7737;SDS011;29398;45.328;5.558;2024-01-25T03:55:02;9.68;;;7.20;;
7737;SDS011;29398;45.328;5.558;2024-01-25T03:56:11;10.88;;;7.88;;
7737;SDS011;29398;45.328;5.558;2024-01-25T03:57:12;9.32;;;6.90;;
7737;SDS011;29398;45.328;5.558;2024-01-25T03:58:14;9.40;;;7.13;;
7737;SDS011;29398;45.328;5.558;2024-01-25T03:59:15;9.68;;;6.85;;
7737;SDS011;29398;45.328;5.558;2024-01-25T04:00:18;8.80;;;6.55;;
7737;SDS011;29398;45.328;5.558;2024-01-25T04:01:20;11.30;;;7.53;;
7737;SDS011;29398;45.328;5.558;2024-01-25T04:02:22;11.57;;;8.02;;
7737;SDS011;29398;45.328;5.558;2024-01-25T04:03:23;11.25;;;7.65;;
7737;SDS011;29398;45.328;5.558;2024-01-25T04:04:24;8.57;;;6.78;;
7737;SDS011;29398;45.328;5.558;2024-01-25T04:05:26;11.00;;;7.90;;
7737;SDS011;29398;45.328;5.558;2024-01-25T04:06:27;9.75;;;7.32;;
7737;SDS011;29398;45.328;5.558;2024-01-25T04:07:28;9.90;;;7.25;;
7737;SDS011;29398;45.328;5.558;2024-01-25T04:08:30;10.90;;;7.53;;
7737;SDS011;29398;45.328;5.558;2024-01-25T04:09:31;8.88;;;6.63;;
7737;SDS011;29398;45.328;5.558;2024-01-25T04:10:34;9.20;;;6.60;;
7737;SDS011;29398;45.328;5.558;2024-01-25T04:11:36;8.52;;;6.40;;
7737;SDS011;29398;45.328;5.558;2024-01-25T04:12:39;9.43;;;7.20;;
7737;SDS011;29398;45.328;5.558;2024-01-25T04:13:40;10.15;;;6.72;;
7737;SDS011;29398;45.328;5.558;2024-01-25T04:14:43;9.35;;;7.20;;
7737;SDS011;29398;45.328;5.558;2024-01-25T04:15:45;10.05;;;7.15;;
7737;SDS011;29398;45.328;5.558;2024-01-25T04:16:47;11.40;;;7.05;;
7737;SDS011;29398;45.328;5.558;2024-01-25T04:17:49;9.23;;;6.82;;
7737;SDS011;29398;45.328;5.558;2024-01-25T04:18:56;8.63;;;6.82;;
7737;SDS011;29398;45.328;5.558;2024-01-25T04:19:57;8.15;;;6.72;;
7737;SDS011;29398;45.328;5.558;2024-01-25T04:21:00;10.00;;;6.85;;
7737;SDS011;29398;45.328;5.558;2024-01-25T04:22:01;9.27;;;6.85;;
7737;SDS011;29398;45.328;5.558;2024-01-25T04:23:03;7.63;;;6.80;;
7737;SDS011;29398;45.328;5.558;2024-01-25T04:24:04;8.73;;;6.50;;
7737;SDS011;29398;45.328;5.558;2024-01-25T04:25:07;8.57;;;6.03;;
7737;SDS011;29398;45.328;5.558;2024-01-25T04:26:08;10.23;;;7.03;;
7737;SDS011;29398;45.328;5.558;2024-01-25T04:27:12;7.47;;;6.28;;
7737;SDS011;29398;45.328;5.558;2024-01-25T04:28:13;7.50;;;6.50;;
7737;SDS011;29398;45.328;5.558;2024-01-25T04:29:15;8.20;;;6.07;;
7737;SDS011;29398;45.328;5.558;2024-01-25T04:30:16;9.43;;;6.38;;
7737;SDS011;29398;45.328;5.558;2024-01-25T04:31:18;9.40;;;6.93;;
7737;SDS011;29398;45.328;5.558;2024-01-25T04:32:19;8.57;;;6.28;;
7737;SDS011;29398;45.328;5.558;2024-01-25T04:33:21;7.97;;;6.55;;
7737;SDS011;29398;45.328;5.558;2024-01-25T04:34:22;9.60;;;6.80;;
7737;SDS011;29398;45.328;5.558;2024-01-25T04:35:24;10.82;;;6.65;;
7737;SDS011;29398;45.328;5.558;2024-01-25T04:36:25;8.13;;;6.35;;
7737;SDS011;29398;45.328;5.558;2024-01-25T04:37:27;9.98;;;6.90;;
7737;SDS011;29398;45.328;5.558;2024-01-25T04:38:28;8.57;;;7.18;;
7737;SDS011;29398;45.328;5.558;2024-01-25T04:39:30;7.72;;;6.40;;
7737;SDS011;29398;45.328;5.558;2024-01-25T04:40:33;8.48;;;7.00;;
7737;SDS011;29398;45.328;5.558;2024-01-25T04:41:34;9.70;;;7.18;;
7737;SDS011;29398;45.328;5.558;2024-01-25T04:42:38;8.48;;;6.85;;
7737;SDS011;29398;45.328;5.558;2024-01-25T04:43:39;8.93;;;6.57;;
7737;SDS011;29398;45.328;5.558;2024-01-25T04:44:41;10.55;;;7.15;;
7737;SDS011;29398;45.328;5.558;2024-01-25T04:45:42;10.05;;;7.03;;
7737;SDS011;29398;45.328;5.558;2024-01-25T04:46:43;11.40;;;7.55;;
7737;SDS011;29398;45.328;5.558;2024-01-25T04:47:45;9.00;;;7.55;;
7737;SDS011;29398;45.328;5.558;2024-01-25T04:48:46;10.93;;;7.40;;
7737;SDS011;29398;45.328;5.558;2024-01-25T04:49:49;9.00;;;7.03;;
7737;SDS011;29398;45.328;5.558;2024-01-25T04:50:50;11.90;;;7.40;;
7737;SDS011;29398;45.328;5.558;2024-01-25T04:51:52;10.77;;;8.00;;
7737;SDS011;29398;45.328;5.558;2024-01-25T04:52:53;9.80;;;7.65;;
7737;SDS011;29398;45.328;5.558;2024-01-25T04:53:55;10.43;;;7.60;;
7737;SDS011;29398;45.328;5.558;2024-01-25T04:54:56;8.90;;;7.38;;
7737;SDS011;29398;45.328;5.558;2024-01-25T04:55:58;12.23;;;7.35;;
7737;SDS011;29398;45.328;5.558;2024-01-25T04:57:00;11.80;;;7.95;;
7737;SDS011;29398;45.328;5.558;2024-01-25T04:58:07;11.48;;;8.02;;
7737;SDS011;29398;45.328;5.558;2024-01-25T04:59:09;11.18;;;7.45;;
7737;SDS011;29398;45.328;5.558;2024-01-25T05:00:11;9.32;;;7.70;;
7737;SDS011;29398;45.328;5.558;2024-01-25T05:01:13;11.18;;;7.45;;
7737;SDS011;29398;45.328;5.558;2024-01-25T05:02:15;11.68;;;8.50;;
7737;SDS011;29398;45.328;5.558;2024-01-25T05:03:16;11.30;;;7.32;;
7737;SDS011;29398;45.328;5.558;2024-01-25T05:04:18;9.40;;;6.85;;
7737;SDS011;29398;45.328;5.558;2024-01-25T05:05:19;9.30;;;6.80;;
7737;SDS011;29398;45.328;5.558;2024-01-25T05:06:21;11.07;;;7.35;;
7737;SDS011;29398;45.328;5.558;2024-01-25T05:07:22;9.02;;;7.00;;
7737;SDS011;29398;45.328;5.558;2024-01-25T05:08:24;10.00;;;6.78;;
7737;SDS011;29398;45.328;5.558;2024-01-25T05:09:26;10.98;;;7.15;;
7737;SDS011;29398;45.328;5.558;2024-01-25T05:10:29;11.13;;;7.60;;
7737;SDS011;29398;45.328;5.558;2024-01-25T05:11:30;10.30;;;7.20;;
7737;SDS011;29398;45.328;5.558;2024-01-25T05:12:32;10.10;;;7.43;;
7737;SDS011;29398;45.328;5.558;2024-01-25T05:13:34;12.50;;;7.22;;
7737;SDS011;29398;45.328;5.558;2024-01-25T05:14:36;9.30;;;7.15;;
7737;SDS011;29398;45.328;5.558;2024-01-25T05:15:37;9.68;;;7.30;;
7737;SDS011;29398;45.328;5.558;2024-01-25T05:16:39;10.35;;;7.20;;
7737;SDS011;29398;45.328;5.558;2024-01-25T05:17:41;12.45;;;7.50;;
7737;SDS011;29398;45.328;5.558;2024-01-25T05:18:43;13.50;;;7.82;;
7737;SDS011;29398;45.328;5.558;2024-01-25T05:19:44;11.30;;;7.10;;
7737;SDS011;29398;45.328;5.558;2024-01-25T05:20:46;8.27;;;6.97;;
7737;SDS011;29398;45.328;5.558;2024-01-25T05:21:47;10.27;;;7.03;;
7737;SDS011;29398;45.328;5.558;2024-01-25T05:22:49;10.90;;;7.72;;
7737;SDS011;29398;45.328;5.558;2024-01-25T05:23:51;9.18;;;7.32;;
7737;SDS011;29398;45.328;5.558;2024-01-25T05:24:53;12.23;;;7.70;;
7737;SDS011;29398;45.328;5.558;2024-01-25T05:25:54;12.90;;;8.52;;
7737;SDS011;29398;45.328;5.558;2024-01-25T05:26:56;12.40;;;7.85;;
7737;SDS011;29398;45.328;5.558;2024-01-25T05:27:57;11.07;;;7.47;;
7737;SDS011;29398;45.328;5.558;2024-01-25T05:29:01;9.05;;;7.40;;
7737;SDS011;29398;45.328;5.558;2024-01-25T05:30:03;10.00;;;7.10;;
7737;SDS011;29398;45.328;5.558;2024-01-25T05:31:06;13.35;;;7.85;;
7737;SDS011;29398;45.328;5.558;2024-01-25T05:32:12;10.43;;;7.25;;
7737;SDS011;29398;45.328;5.558;2024-01-25T05:33:14;15.25;;;7.75;;
7737;SDS011;29398;45.328;5.558;2024-01-25T05:34:15;9.93;;;7.43;;
7737;SDS011;29398;45.328;5.558;2024-01-25T05:35:17;12.88;;;8.00;;
7737;SDS011;29398;45.328;5.558;2024-01-25T05:36:18;10.07;;;6.72;;
7737;SDS011;29398;45.328;5.558;2024-01-25T05:37:22;10.85;;;7.53;;
7737;SDS011;29398;45.328;5.558;2024-01-25T05:38:23;13.82;;;7.82;;
7737;SDS011;29398;45.328;5.558;2024-01-25T05:39:25;11.30;;;8.20;;
7737;SDS011;29398;45.328;5.558;2024-01-25T05:40:26;13.00;;;8.00;;
7737;SDS011;29398;45.328;5.558;2024-01-25T05:41:28;9.98;;;8.00;;
7737;SDS011;29398;45.328;5.558;2024-01-25T05:42:29;11.70;;;7.88;;
7737;SDS011;29398;45.328;5.558;2024-01-25T05:43:30;13.35;;;8.23;;
7737;SDS011;29398;45.328;5.558;2024-01-25T05:44:36;11.27;;;7.63;;
7737;SDS011;29398;45.328;5.558;2024-01-25T05:45:37;11.50;;;8.50;;
7737;SDS011;29398;45.328;5.558;2024-01-25T05:46:39;12.20;;;8.57;;
7737;SDS011;29398;45.328;5.558;2024-01-25T05:47:40;9.70;;;7.90;;
7737;SDS011;29398;45.328;5.558;2024-01-25T05:48:41;10.05;;;7.57;;
7737;SDS011;29398;45.328;5.558;2024-01-25T05:49:43;10.48;;;7.45;;
7737;SDS011;29398;45.328;5.558;2024-01-25T05:50:45;13.30;;;8.48;;
7737;SDS011;29398;45.328;5.558;2024-01-25T05:51:47;10.57;;;8.25;;
7737;SDS011;29398;45.328;5.558;2024-01-25T05:52:48;16.27;;;8.32;;
7737;SDS011;29398;45.328;5.558;2024-01-25T05:53:50;12.75;;;8.55;;
7737;SDS011;29398;45.328;5.558;2024-01-25T05:54:51;12.18;;;8.50;;
7737;SDS011;29398;45.328;5.558;2024-01-25T05:55:53;13.65;;;8.10;;
7737;SDS011;29398;45.328;5.558;2024-01-25T05:56:54;11.75;;;8.15;;
7737;SDS011;29398;45.328;5.558;2024-01-25T05:57:56;11.73;;;8.57;;
7737;SDS011;29398;45.328;5.558;2024-01-25T05:58:57;11.50;;;7.43;;
7737;SDS011;29398;45.328;5.558;2024-01-25T06:00:01;10.75;;;8.40;;
7737;SDS011;29398;45.328;5.558;2024-01-25T06:01:08;12.30;;;8.35;;
7737;SDS011;29398;45.328;5.558;2024-01-25T06:02:10;14.73;;;9.30;;
7737;SDS011;29398;45.328;5.558;2024-01-25T06:03:11;11.98;;;8.10;;
7737;SDS011;29398;45.328;5.558;2024-01-25T06:04:13;10.82;;;7.93;;
7737;SDS011;29398;45.328;5.558;2024-01-25T06:05:15;9.68;;;7.53;;
7737;SDS011;29398;45.328;5.558;2024-01-25T06:06:17;10.20;;;7.63;;
7737;SDS011;29398;45.328;5.558;2024-01-25T06:07:18;11.25;;;7.95;;
7737;SDS011;29398;45.328;5.558;2024-01-25T06:08:20;11.70;;;8.00;;
7737;SDS011;29398;45.328;5.558;2024-01-25T06:09:21;10.95;;;8.07;;
7737;SDS011;29398;45.328;5.558;2024-01-25T06:10:24;10.52;;;8.10;;
7737;SDS011;29398;45.328;5.558;2024-01-25T06:11:25;13.60;;;9.02;;
7737;SDS011;29398;45.328;5.558;2024-01-25T06:12:27;14.10;;;8.52;;
7737;SDS011;29398;45.328;5.558;2024-01-25T06:13:29;12.73;;;8.88;;
7737;SDS011;29398;45.328;5.558;2024-01-25T06:14:32;11.45;;;8.27;;
7737;SDS011;29398;45.328;5.558;2024-01-25T06:15:34;11.15;;;8.50;;
7737;SDS011;29398;45.328;5.558;2024-01-25T06:16:36;10.07;;;7.80;;
7737;SDS011;29398;45.328;5.558;2024-01-25T06:17:37;11.55;;;7.68;;
7737;SDS011;29398;45.328;5.558;2024-01-25T06:18:39;11.32;;;7.30;;
7737;SDS011;29398;45.328;5.558;2024-01-25T06:19:40;10.82;;;7.88;;
7737;SDS011;29398;45.328;5.558;2024-01-25T06:20:42;12.82;;;8.15;;